sensor_id;sensor_type;location;lat;lon;timestamp;pressure;altitude;pressure_sealevel;temperature;humidity
6435;BME280;3250;42.694;23.278;2023-04-27T00:01:31;94542.34;;;9.95;57.43
6435;BME280;3250;42.694;23.278;2023-04-27T00:03:57;94545.22;;;9.93;57.56
6435;BME280;3250;42.694;23.278;2023-04-27T00:06:23;94541.56;;;9.94;57.81
6435;BME280;3250;42.694;23.278;2023-04-27T00:08:50;94544.97;;;9.95;58.20
6435;BME280;3250;42.694;23.278;2023-04-27T00:11:16;94550.09;;;9.90;57.65
6435;BME280;3250;42.694;23.278;2023-04-27T00:13:41;94552.56;;;9.84;57.93
6435;BME280;3250;42.694;23.278;2023-04-27T00:16:06;94552.69;;;9.65;57.10
6435;BME280;3250;42.694;23.278;2023-04-27T00:18:32;94564.06;;;9.52;58.40
6435;BME280;3250;42.694;23.278;2023-04-27T00:20:57;94559.72;;;9.39;58.25
6435;BME280;3250;42.694;23.278;2023-04-27T00:23:23;94557.44;;;9.50;58.92
6435;BME280;3250;42.694;23.278;2023-04-27T00:25:48;94558.44;;;9.49;58.72
6435;BME280;3250;42.694;23.278;2023-04-27T00:28:14;94556.94;;;9.28;58.27
6435;BME280;3250;42.694;23.278;2023-04-27T00:30:39;94557.38;;;9.18;59.86
6435;BME280;3250;42.694;23.278;2023-04-27T00:33:05;94551.53;;;9.23;59.97
6435;BME280;3250;42.694;23.278;2023-04-27T00:35:33;94550.47;;;9.30;59.51
6435;BME280;3250;42.694;23.278;2023-04-27T00:37:58;94554.50;;;9.33;59.11
6435;BME280;3250;42.694;23.278;2023-04-27T00:40:24;94560.97;;;9.30;59.48
6435;BME280;3250;42.694;23.278;2023-04-27T00:42:49;94547.25;;;9.28;59.67
6435;BME280;3250;42.694;23.278;2023-04-27T00:45:15;94552.69;;;9.27;59.78
6435;BME280;3250;42.694;23.278;2023-04-27T00:47:41;94551.72;;;9.21;59.70
6435;BME280;3250;42.694;23.278;2023-04-27T00:50:07;94548.91;;;9.23;59.28
6435;BME280;3250;42.694;23.278;2023-04-27T00:52:35;94556.03;;;9.02;60.26
6435;BME280;3250;42.694;23.278;2023-04-27T00:55:02;94559.28;;;9.04;60.03
6435;BME280;3250;42.694;23.278;2023-04-27T00:57:28;94561.72;;;8.93;59.96
6435;BME280;3250;42.694;23.278;2023-04-27T00:59:54;94559.06;;;8.99;60.17
6435;BME280;3250;42.694;23.278;2023-04-27T01:02:20;94558.53;;;8.84;59.89
6435;BME280;3250;42.694;23.278;2023-04-27T01:04:47;94561.41;;;8.69;60.73
6435;BME280;3250;42.694;23.278;2023-04-27T01:07:14;94561.59;;;8.75;61.18
6435;BME280;3250;42.694;23.278;2023-04-27T01:09:40;94567.66;;;8.82;61.76
6435;BME280;3250;42.694;23.278;2023-04-27T01:12:06;94571.03;;;8.82;61.08
6435;BME280;3250;42.694;23.278;2023-04-27T01:14:31;94565.44;;;8.65;60.09
6435;BME280;3250;42.694;23.278;2023-04-27T01:16:57;94566.50;;;8.64;60.63
6435;BME280;3250;42.694;23.278;2023-04-27T01:19:22;94568.69;;;8.67;60.99
6435;BME280;3250;42.694;23.278;2023-04-27T01:21:47;94572.09;;;8.68;61.07
6435;BME280;3250;42.694;23.278;2023-04-27T01:24:13;94572.53;;;8.58;61.11
6435;BME280;3250;42.694;23.278;2023-04-27T01:26:39;94560.03;;;8.54;60.78
6435;BME280;3250;42.694;23.278;2023-04-27T01:29:04;94576.19;;;8.31;61.12
6435;BME280;3250;42.694;23.278;2023-04-27T01:31:30;94576.59;;;8.08;62.26
6435;BME280;3250;42.694;23.278;2023-04-27T01:33:55;94578.22;;;8.16;62.32
6435;BME280;3250;42.694;23.278;2023-04-27T01:36:21;94581.84;;;8.08;62.42
6435;BME280;3250;42.694;23.278;2023-04-27T01:38:46;94584.25;;;7.83;62.95
6435;BME280;3250;42.694;23.278;2023-04-27T01:41:12;94564.31;;;7.76;63.21
6435;BME280;3250;42.694;23.278;2023-04-27T01:43:37;94580.63;;;7.91;63.10
6435;BME280;3250;42.694;23.278;2023-04-27T01:46:10;94584.25;;;7.90;63.66
6435;BME280;3250;42.694;23.278;2023-04-27T01:48:37;94581.25;;;7.86;63.49
6435;BME280;3250;42.694;23.278;2023-04-27T01:51:02;94557.25;;;7.83;62.89
6435;BME280;3250;42.694;23.278;2023-04-27T01:53:28;94584.66;;;8.00;62.93
6435;BME280;3250;42.694;23.278;2023-04-27T01:55:54;94589.69;;;7.88;63.16
6435;BME280;3250;42.694;23.278;2023-04-27T01:58:19;94580.78;;;7.56;63.45
6435;BME280;3250;42.694;23.278;2023-04-27T02:00:45;94587.47;;;7.72;63.71
6435;BME280;3250;42.694;23.278;2023-04-27T02:03:10;94583.84;;;7.80;63.92
6435;BME280;3250;42.694;23.278;2023-04-27T02:05:36;94580.44;;;7.86;63.56
6435;BME280;3250;42.694;23.278;2023-04-27T02:08:01;94587.06;;;7.69;63.98
6435;BME280;3250;42.694;23.278;2023-04-27T02:10:27;94590.91;;;7.86;64.45
6435;BME280;3250;42.694;23.278;2023-04-27T02:12:52;94582.25;;;7.85;63.62
6435;BME280;3250;42.694;23.278;2023-04-27T02:15:18;94590.69;;;7.81;63.57
6435;BME280;3250;42.694;23.278;2023-04-27T02:17:43;94583.44;;;7.89;64.05
6435;BME280;3250;42.694;23.278;2023-04-27T02:20:10;94594.34;;;8.06;62.65
6435;BME280;3250;42.694;23.278;2023-04-27T02:22:40;94595.75;;;8.02;62.88
6435;BME280;3250;42.694;23.278;2023-04-27T02:25:06;94593.56;;;8.12;62.47
6435;BME280;3250;42.694;23.278;2023-04-27T02:27:32;94584.47;;;7.75;62.75
6435;BME280;3250;42.694;23.278;2023-04-27T02:29:57;94592.94;;;7.77;63.35
6435;BME280;3250;42.694;23.278;2023-04-27T02:32:22;94597.16;;;7.78;63.24
6435;BME280;3250;42.694;23.278;2023-04-27T02:34:48;94593.94;;;7.89;63.84
6435;BME280;3250;42.694;23.278;2023-04-27T02:37:13;94603.81;;;7.87;63.12
6435;BME280;3250;42.694;23.278;2023-04-27T02:39:38;94599.59;;;7.86;63.24
6435;BME280;3250;42.694;23.278;2023-04-27T02:42:04;94582.06;;;7.93;62.98
6435;BME280;3250;42.694;23.278;2023-04-27T02:44:29;94606.47;;;8.20;62.97
6435;BME280;3250;42.694;23.278;2023-04-27T02:46:55;94606.47;;;8.20;62.74
6435;BME280;3250;42.694;23.278;2023-04-27T02:49:20;94610.72;;;8.35;61.99
6435;BME280;3250;42.694;23.278;2023-04-27T02:51:46;94605.06;;;8.31;61.46
6435;BME280;3250;42.694;23.278;2023-04-27T02:54:11;94609.31;;;8.39;61.11
6435;BME280;3250;42.694;23.278;2023-04-27T02:56:36;94608.50;;;8.38;60.86
6435;BME280;3250;42.694;23.278;2023-04-27T02:59:02;94611.94;;;8.39;61.33
6435;BME280;3250;42.694;23.278;2023-04-27T03:01:28;94607.06;;;8.36;62.27
6435;BME280;3250;42.694;23.278;2023-04-27T03:03:53;94619.38;;;8.35;62.17
6435;BME280;3250;42.694;23.278;2023-04-27T03:06:19;94620.16;;;8.29;60.92
6435;BME280;3250;42.694;23.278;2023-04-27T03:08:44;94612.91;;;8.31;61.61
6435;BME280;3250;42.694;23.278;2023-04-27T03:11:10;94614.94;;;8.36;61.61
6435;BME280;3250;42.694;23.278;2023-04-27T03:13:36;94621.59;;;8.31;61.37
6435;BME280;3250;42.694;23.278;2023-04-27T03:16:09;94600.41;;;8.20;60.81
6435;BME280;3250;42.694;23.278;2023-04-27T03:18:38;94622.19;;;8.27;61.48
6435;BME280;3250;42.694;23.278;2023-04-27T03:23:30;94625.00;;;8.12;60.71
6435;BME280;3250;42.694;23.278;2023-04-27T03:25:56;94625.41;;;8.09;62.04
6435;BME280;3250;42.694;23.278;2023-04-27T03:28:21;94633.88;;;8.11;62.33
6435;BME280;3250;42.694;23.278;2023-04-27T03:30:47;94634.47;;;8.07;62.47
6435;BME280;3250;42.694;23.278;2023-04-27T03:33:12;94625.00;;;8.06;62.50
6435;BME280;3250;42.694;23.278;2023-04-27T03:35:38;94635.69;;;8.11;62.59
6435;BME280;3250;42.694;23.278;2023-04-27T03:38:03;94633.47;;;8.08;61.71
6435;BME280;3250;42.694;23.278;2023-04-27T03:40:29;94630.44;;;8.11;61.76
6435;BME280;3250;42.694;23.278;2023-04-27T03:42:54;94630.44;;;8.17;61.08
6435;BME280;3250;42.694;23.278;2023-04-27T03:45:19;94637.91;;;8.20;60.90
6435;BME280;3250;42.694;23.278;2023-04-27T03:47:46;94642.53;;;8.25;60.68
6435;BME280;3250;42.694;23.278;2023-04-27T03:50:12;94641.56;;;8.32;60.75
6435;BME280;3250;42.694;23.278;2023-04-27T03:52:37;94643.16;;;8.27;60.83
6435;BME280;3250;42.694;23.278;2023-04-27T03:55:03;94644.34;;;8.24;60.51
6435;BME280;3250;42.694;23.278;2023-04-27T03:57:29;94651.84;;;8.21;59.65
6435;BME280;3250;42.694;23.278;2023-04-27T03:59:56;94661.28;;;8.22;60.56
6435;BME280;3250;42.694;23.278;2023-04-27T04:02:21;94666.53;;;8.22;60.78
6435;BME280;3250;42.694;23.278;2023-04-27T04:04:47;94667.75;;;8.13;60.64
6435;BME280;3250;42.694;23.278;2023-04-27T04:07:12;94670.53;;;8.05;61.97
6435;BME280;3250;42.694;23.278;2023-04-27T04:09:38;94670.78;;;8.03;60.94
6435;BME280;3250;42.694;23.278;2023-04-27T04:12:04;94672.97;;;8.06;60.47
6435;BME280;3250;42.694;23.278;2023-04-27T04:14:29;94684.69;;;8.10;61.30
6435;BME280;3250;42.694;23.278;2023-04-27T04:16:54;94678.63;;;8.16;60.86
6435;BME280;3250;42.694;23.278;2023-04-27T04:19:20;94684.88;;;8.15;60.27
6435;BME280;3250;42.694;23.278;2023-04-27T04:21:45;94685.09;;;8.14;59.94
6435;BME280;3250;42.694;23.278;2023-04-27T04:24:12;94685.50;;;8.17;61.02
6435;BME280;3250;42.694;23.278;2023-04-27T04:26:40;94689.50;;;8.13;60.21
6435;BME280;3250;42.694;23.278;2023-04-27T04:29:05;94692.56;;;8.17;60.89
6435;BME280;3250;42.694;23.278;2023-04-27T04:31:31;94695.66;;;8.53;60.18
6435;BME280;3250;42.694;23.278;2023-04-27T04:33:59;94697.97;;;9.21;59.40
6435;BME280;3250;42.694;23.278;2023-04-27T04:36:25;94703.44;;;9.77;56.12
6435;BME280;3250;42.694;23.278;2023-04-27T04:38:51;94699.16;;;10.20;55.97
6435;BME280;3250;42.694;23.278;2023-04-27T04:41:17;94713.69;;;10.61;53.91
6435;BME280;3250;42.694;23.278;2023-04-27T04:43:43;94707.94;;;10.46;54.26
6435;BME280;3250;42.694;23.278;2023-04-27T04:46:08;94715.66;;;10.66;54.03
6435;BME280;3250;42.694;23.278;2023-04-27T04:48:34;94716.41;;;11.41;52.71
6435;BME280;3250;42.694;23.278;2023-04-27T04:50:59;94726.38;;;12.23;50.81
6435;BME280;3250;42.694;23.278;2023-04-27T04:53:25;94724.75;;;13.17;48.00
6435;BME280;3250;42.694;23.278;2023-04-27T04:55:51;94724.16;;;14.02;51.17
6435;BME280;3250;42.694;23.278;2023-04-27T04:58:16;94730.19;;;14.99;45.14
6435;BME280;3250;42.694;23.278;2023-04-27T05:00:41;94734.38;;;15.50;42.98
6435;BME280;3250;42.694;23.278;2023-04-27T05:03:07;94734.75;;;15.37;42.10
6435;BME280;3250;42.694;23.278;2023-04-27T05:05:32;94740.13;;;15.42;42.82
6435;BME280;3250;42.694;23.278;2023-04-27T05:07:58;94729.75;;;15.40;43.53
6435;BME280;3250;42.694;23.278;2023-04-27T05:10:23;94735.16;;;16.06;41.74
6435;BME280;3250;42.694;23.278;2023-04-27T05:12:49;94738.63;;;16.06;41.06
6435;BME280;3250;42.694;23.278;2023-04-27T05:15:14;94742.63;;;14.98;42.53
6435;BME280;3250;42.694;23.278;2023-04-27T05:17:40;94742.53;;;13.80;44.62
6435;BME280;3250;42.694;23.278;2023-04-27T05:20:06;94749.34;;;13.17;47.14
6435;BME280;3250;42.694;23.278;2023-04-27T05:22:32;94747.69;;;12.93;48.38
6435;BME280;3250;42.694;23.278;2023-04-27T05:24:57;94748.81;;;12.74;49.26
6435;BME280;3250;42.694;23.278;2023-04-27T05:27:23;94741.41;;;12.53;50.28
6435;BME280;3250;42.694;23.278;2023-04-27T05:29:48;94747.59;;;12.17;50.26
6435;BME280;3250;42.694;23.278;2023-04-27T05:32:14;94742.25;;;11.87;51.40
6435;BME280;3250;42.694;23.278;2023-04-27T05:34:39;94743.56;;;11.59;51.75
6435;BME280;3250;42.694;23.278;2023-04-27T05:37:07;94745.63;;;11.39;52.94
6435;BME280;3250;42.694;23.278;2023-04-27T05:39:33;94745.72;;;11.26;53.03
6435;BME280;3250;42.694;23.278;2023-04-27T05:41:58;94750.16;;;11.07;53.75
6435;BME280;3250;42.694;23.278;2023-04-27T05:44:24;94748.84;;;10.98;54.76
6435;BME280;3250;42.694;23.278;2023-04-27T05:46:52;94753.06;;;10.74;54.11
6435;BME280;3250;42.694;23.278;2023-04-27T05:49:17;94743.16;;;10.45;55.20
6435;BME280;3250;42.694;23.278;2023-04-27T05:51:43;94750.84;;;10.46;56.44
6435;BME280;3250;42.694;23.278;2023-04-27T05:54:08;94754.38;;;10.58;56.95
6435;BME280;3250;42.694;23.278;2023-04-27T05:56:34;94752.72;;;10.64;56.46
6435;BME280;3250;42.694;23.278;2023-04-27T05:58:59;94750.59;;;10.79;56.62
6435;BME280;3250;42.694;23.278;2023-04-27T06:01:24;94755.34;;;10.95;56.09
6435;BME280;3250;42.694;23.278;2023-04-27T06:03:50;94741.28;;;11.02;54.85
6435;BME280;3250;42.694;23.278;2023-04-27T06:06:16;94752.00;;;11.25;55.37
6435;BME280;3250;42.694;23.278;2023-04-27T06:08:41;94743.78;;;11.40;55.50
6435;BME280;3250;42.694;23.278;2023-04-27T06:11:06;94723.13;;;11.37;55.22
6435;BME280;3250;42.694;23.278;2023-04-27T06:13:32;94758.81;;;11.57;54.13
6435;BME280;3250;42.694;23.278;2023-04-27T06:15:59;94753.47;;;11.64;54.17
6435;BME280;3250;42.694;23.278;2023-04-27T06:18:25;94748.91;;;11.71;54.92
6435;BME280;3250;42.694;23.278;2023-04-27T06:20:50;94745.19;;;11.79;54.33
6435;BME280;3250;42.694;23.278;2023-04-27T06:23:15;94732.38;;;11.64;53.49
6435;BME280;3250;42.694;23.278;2023-04-27T06:25:41;94741.53;;;11.80;53.74
6435;BME280;3250;42.694;23.278;2023-04-27T06:28:06;94738.91;;;11.98;52.72
6435;BME280;3250;42.694;23.278;2023-04-27T06:30:32;94739.34;;;12.25;53.35
6435;BME280;3250;42.694;23.278;2023-04-27T06:32:57;94744.81;;;12.41;52.39
6435;BME280;3250;42.694;23.278;2023-04-27T06:35:23;94728.91;;;12.60;51.08
6435;BME280;3250;42.694;23.278;2023-04-27T06:37:48;94743.78;;;13.07;50.10
6435;BME280;3250;42.694;23.278;2023-04-27T06:40:13;94748.41;;;13.70;50.59
6435;BME280;3250;42.694;23.278;2023-04-27T06:42:39;94744.50;;;14.13;48.76
6435;BME280;3250;42.694;23.278;2023-04-27T06:45:04;94748.44;;;14.50;47.66
6435;BME280;3250;42.694;23.278;2023-04-27T06:47:31;94741.34;;;14.39;45.69
6435;BME280;3250;42.694;23.278;2023-04-27T06:49:56;94719.59;;;13.97;44.57
6435;BME280;3250;42.694;23.278;2023-04-27T06:52:22;94730.47;;;14.52;46.33
6435;BME280;3250;42.694;23.278;2023-04-27T06:54:48;94735.47;;;14.82;45.19
6435;BME280;3250;42.694;23.278;2023-04-27T06:57:13;94733.13;;;15.36;46.78
6435;BME280;3250;42.694;23.278;2023-04-27T06:59:38;94734.38;;;15.50;44.17
6435;BME280;3250;42.694;23.278;2023-04-27T07:02:04;94739.03;;;15.76;43.93
6435;BME280;3250;42.694;23.278;2023-04-27T07:04:30;94719.00;;;16.07;42.16
6435;BME280;3250;42.694;23.278;2023-04-27T07:06:55;94726.91;;;16.51;43.43
6435;BME280;3250;42.694;23.278;2023-04-27T07:09:21;94719.66;;;17.00;41.70
6435;BME280;3250;42.694;23.278;2023-04-27T07:11:46;94734.53;;;17.28;40.83
6435;BME280;3250;42.694;23.278;2023-04-27T07:14:12;94738.44;;;17.57;40.48
6435;BME280;3250;42.694;23.278;2023-04-27T07:16:37;94734.31;;;17.40;39.99
6435;BME280;3250;42.694;23.278;2023-04-27T07:19:03;94702.69;;;16.74;39.35
6435;BME280;3250;42.694;23.278;2023-04-27T07:21:28;94732.25;;;16.56;41.26
6435;BME280;3250;42.694;23.278;2023-04-27T07:23:53;94739.41;;;16.29;41.88
6435;BME280;3250;42.694;23.278;2023-04-27T07:26:19;94737.13;;;16.15;41.76
6435;BME280;3250;42.694;23.278;2023-04-27T07:28:45;94734.22;;;15.95;42.29
6435;BME280;3250;42.694;23.278;2023-04-27T07:31:11;94730.41;;;15.86;41.79
6435;BME280;3250;42.694;23.278;2023-04-27T07:33:37;94729.91;;;15.89;42.09
6435;BME280;3250;42.694;23.278;2023-04-27T07:36:02;94723.00;;;15.33;42.43
6435;BME280;3250;42.694;23.278;2023-04-27T07:38:29;94736.44;;;15.26;42.59
6435;BME280;3250;42.694;23.278;2023-04-27T07:40:57;94707.56;;;15.46;44.11
6435;BME280;3250;42.694;23.278;2023-04-27T07:43:23;94738.47;;;16.18;43.46
6435;BME280;3250;42.694;23.278;2023-04-27T07:45:50;94720.94;;;16.92;42.40
6435;BME280;3250;42.694;23.278;2023-04-27T07:48:15;94727.22;;;17.50;41.11
6435;BME280;3250;42.694;23.278;2023-04-27T07:50:41;94723.28;;;18.05;41.64
6435;BME280;3250;42.694;23.278;2023-04-27T07:53:06;94732.81;;;18.63;38.28
6435;BME280;3250;42.694;23.278;2023-04-27T07:55:31;94712.28;;;18.74;36.69
6435;BME280;3250;42.694;23.278;2023-04-27T07:57:57;94733.06;;;18.57;36.88
6435;BME280;3250;42.694;23.278;2023-04-27T08:00:23;94738.25;;;18.26;37.37
6435;BME280;3250;42.694;23.278;2023-04-27T08:02:53;94735.97;;;17.88;37.13
6435;BME280;3250;42.694;23.278;2023-04-27T08:05:18;94723.81;;;17.60;38.92
6435;BME280;3250;42.694;23.278;2023-04-27T08:07:44;94736.78;;;17.51;39.12
6435;BME280;3250;42.694;23.278;2023-04-27T08:10:09;94715.97;;;17.38;39.13
6435;BME280;3250;42.694;23.278;2023-04-27T08:12:35;94731.59;;;17.29;40.70
6435;BME280;3250;42.694;23.278;2023-04-27T08:15:01;94728.81;;;16.82;38.97
6435;BME280;3250;42.694;23.278;2023-04-27T08:17:26;94724.22;;;17.05;40.85
6435;BME280;3250;42.694;23.278;2023-04-27T08:19:51;94729.47;;;17.63;39.75
6435;BME280;3250;42.694;23.278;2023-04-27T08:22:17;94729.19;;;18.22;40.24
6435;BME280;3250;42.694;23.278;2023-04-27T08:24:43;94727.53;;;18.99;40.75
6435;BME280;3250;42.694;23.278;2023-04-27T08:27:08;94730.97;;;19.30;36.64
6435;BME280;3250;42.694;23.278;2023-04-27T08:29:34;94700.28;;;19.22;36.95
6435;BME280;3250;42.694;23.278;2023-04-27T08:32:01;94727.25;;;19.46;37.72
6435;BME280;3250;42.694;23.278;2023-04-27T08:34:27;94717.63;;;19.30;35.61
6435;BME280;3250;42.694;23.278;2023-04-27T08:36:53;94732.31;;;18.92;37.42
6435;BME280;3250;42.694;23.278;2023-04-27T08:39:20;94736.88;;;19.16;36.27
6435;BME280;3250;42.694;23.278;2023-04-27T08:41:45;94720.59;;;19.23;36.93
6435;BME280;3250;42.694;23.278;2023-04-27T08:44:11;94723.78;;;19.40;36.68
6435;BME280;3250;42.694;23.278;2023-04-27T08:46:37;94729.94;;;19.51;37.70
6435;BME280;3250;42.694;23.278;2023-04-27T08:49:02;94728.34;;;19.50;36.90
6435;BME280;3250;42.694;23.278;2023-04-27T08:51:28;94728.59;;;19.43;34.82
6435;BME280;3250;42.694;23.278;2023-04-27T08:53:55;94727.00;;;19.52;35.17
6435;BME280;3250;42.694;23.278;2023-04-27T08:56:26;94728.81;;;19.72;37.45
6435;BME280;3250;42.694;23.278;2023-04-27T08:58:53;94726.94;;;19.83;37.03
6435;BME280;3250;42.694;23.278;2023-04-27T09:01:19;94726.94;;;19.78;35.81
6435;BME280;3250;42.694;23.278;2023-04-27T09:03:45;94728.59;;;19.53;36.47
6435;BME280;3250;42.694;23.278;2023-04-27T09:06:11;94718.19;;;19.32;36.75
6435;BME280;3250;42.694;23.278;2023-04-27T09:08:47;94723.22;;;19.38;36.27
6435;BME280;3250;42.694;23.278;2023-04-27T09:11:31;94722.44;;;19.38;36.09
6435;BME280;3250;42.694;23.278;2023-04-27T09:13:57;94720.56;;;18.00;34.08
6435;BME280;3250;42.694;23.278;2023-04-27T09:16:24;94726.81;;;17.68;38.37
6435;BME280;3250;42.694;23.278;2023-04-27T09:18:50;94713.13;;;18.02;38.72
6435;BME280;3250;42.694;23.278;2023-04-27T09:21:23;94715.34;;;18.25;38.19
6435;BME280;3250;42.694;23.278;2023-04-27T09:23:49;94721.28;;;18.47;37.93
6435;BME280;3250;42.694;23.278;2023-04-27T09:26:26;94721.22;;;18.27;36.73
6435;BME280;3250;42.694;23.278;2023-04-27T09:28:54;94716.59;;;17.97;35.79
6435;BME280;3250;42.694;23.278;2023-04-27T09:31:40;94690.41;;;17.79;37.54
6435;BME280;3250;42.694;23.278;2023-04-27T09:34:06;94687.78;;;17.47;36.31
6435;BME280;3250;42.694;23.278;2023-04-27T09:36:31;94708.50;;;16.71;37.76
6435;BME280;3250;42.694;23.278;2023-04-27T09:38:56;94695.75;;;16.46;36.82
6435;BME280;3250;42.694;23.278;2023-04-27T09:41:24;94698.16;;;16.48;39.20
6435;BME280;3250;42.694;23.278;2023-04-27T09:43:49;94688.69;;;16.84;39.12
6435;BME280;3250;42.694;23.278;2023-04-27T09:46:15;94686.41;;;16.97;37.61
6435;BME280;3250;42.694;23.278;2023-04-27T09:48:41;94690.44;;;17.05;38.46
6435;BME280;3250;42.694;23.278;2023-04-27T09:51:07;94691.56;;;16.77;38.34
6435;BME280;3250;42.694;23.278;2023-04-27T09:53:36;94685.22;;;16.56;37.61
6435;BME280;3250;42.694;23.278;2023-04-27T10:01:35;94679.78;;;17.00;39.07
6435;BME280;3250;42.694;23.278;2023-04-27T10:06:58;94684.03;;;17.85;37.28
6435;BME280;3250;42.694;23.278;2023-04-27T10:09:25;94681.97;;;17.97;38.77
6435;BME280;3250;42.694;23.278;2023-04-27T10:11:53;94686.78;;;17.53;34.08
6435;BME280;3250;42.694;23.278;2023-04-27T10:14:21;94688.63;;;17.11;36.88
6435;BME280;3250;42.694;23.278;2023-04-27T10:16:54;94670.22;;;16.67;37.34
6435;BME280;3250;42.694;23.278;2023-04-27T10:19:21;94682.50;;;16.78;38.79
6435;BME280;3250;42.694;23.278;2023-04-27T10:24:30;94649.16;;;16.97;38.67
6435;BME280;3250;42.694;23.278;2023-04-27T10:27:00;94684.66;;;17.55;39.75
6435;BME280;3250;42.694;23.278;2023-04-27T10:29:40;94676.59;;;17.92;38.99
6435;BME280;3250;42.694;23.278;2023-04-27T10:32:12;94674.50;;;18.04;36.90
6435;BME280;3250;42.694;23.278;2023-04-27T10:34:39;94676.53;;;17.77;34.69
6435;BME280;3250;42.694;23.278;2023-04-27T10:37:08;94675.59;;;17.56;36.89
6435;BME280;3250;42.694;23.278;2023-04-27T10:39:39;94681.00;;;17.24;36.96
6435;BME280;3250;42.694;23.278;2023-04-27T10:42:06;94669.78;;;17.17;36.49
6435;BME280;3250;42.694;23.278;2023-04-27T10:44:33;94675.44;;;17.26;37.51
6435;BME280;3250;42.694;23.278;2023-04-27T10:47:00;94677.13;;;17.42;38.10
6435;BME280;3250;42.694;23.278;2023-04-27T10:49:27;94681.38;;;17.43;36.23
6435;BME280;3250;42.694;23.278;2023-04-27T10:51:56;94680.56;;;17.38;35.78
6435;BME280;3250;42.694;23.278;2023-04-27T10:54:26;94677.03;;;17.27;34.72
6435;BME280;3250;42.694;23.278;2023-04-27T10:56:52;94663.84;;;17.05;34.65
6435;BME280;3250;42.694;23.278;2023-04-27T10:59:18;94681.19;;;17.13;36.75
6435;BME280;3250;42.694;23.278;2023-04-27T11:01:47;94670.91;;;17.26;37.02
6435;BME280;3250;42.694;23.278;2023-04-27T11:04:13;94673.47;;;17.58;38.29
6435;BME280;3250;42.694;23.278;2023-04-27T11:06:43;94668.56;;;17.82;38.62
6435;BME280;3250;42.694;23.278;2023-04-27T11:09:10;94663.81;;;17.99;38.63
6435;BME280;3250;42.694;23.278;2023-04-27T11:11:35;94638.50;;;17.87;36.92
6435;BME280;3250;42.694;23.278;2023-04-27T11:14:01;94672.41;;;18.17;38.07
6435;BME280;3250;42.694;23.278;2023-04-27T11:16:28;94676.72;;;18.23;35.29
6435;BME280;3250;42.694;23.278;2023-04-27T11:18:53;94677.41;;;17.93;35.94
6435;BME280;3250;42.694;23.278;2023-04-27T11:21:19;94684.50;;;17.72;34.71
6435;BME280;3250;42.694;23.278;2023-04-27T11:23:46;94685.41;;;17.46;35.75
6435;BME280;3250;42.694;23.278;2023-04-27T11:26:17;94659.66;;;17.14;35.10
6435;BME280;3250;42.694;23.278;2023-04-27T11:28:44;94680.81;;;16.99;36.44
6435;BME280;3250;42.694;23.278;2023-04-27T11:31:10;94684.50;;;16.93;38.65
6435;BME280;3250;42.694;23.278;2023-04-27T11:33:36;94681.94;;;17.03;37.46
6435;BME280;3250;42.694;23.278;2023-04-27T11:36:15;94677.59;;;16.92;37.74
6435;BME280;3250;42.694;23.278;2023-04-27T11:38:41;94686.13;;;16.94;36.89
6435;BME280;3250;42.694;23.278;2023-04-27T11:41:06;94672.75;;;16.89;37.66
6435;BME280;3250;42.694;23.278;2023-04-27T11:43:32;94671.97;;;16.88;37.33
6435;BME280;3250;42.694;23.278;2023-04-27T11:46:02;94682.81;;;16.82;36.41
6435;BME280;3250;42.694;23.278;2023-04-27T11:48:27;94684.31;;;16.68;37.92
6435;BME280;3250;42.694;23.278;2023-04-27T11:50:56;94684.31;;;16.68;38.59
6435;BME280;3250;42.694;23.278;2023-04-27T11:53:31;94680.53;;;16.64;36.71
6435;BME280;3250;42.694;23.278;2023-04-27T11:56:04;94683.44;;;16.62;39.32
6435;BME280;3250;42.694;23.278;2023-04-27T11:58:38;94670.31;;;16.55;38.38
6435;BME280;3250;42.694;23.278;2023-04-27T12:01:04;94696.22;;;16.65;38.41
6435;BME280;3250;42.694;23.278;2023-04-27T12:03:30;94696.22;;;16.65;37.22
6435;BME280;3250;42.694;23.278;2023-04-27T12:05:56;94686.16;;;16.67;37.96
6435;BME280;3250;42.694;23.278;2023-04-27T12:08:22;94675.53;;;16.67;38.95
6435;BME280;3250;42.694;23.278;2023-04-27T12:10:47;94694.84;;;16.89;37.22
6435;BME280;3250;42.694;23.278;2023-04-27T12:13:13;94697.34;;;17.01;37.74
6435;BME280;3250;42.694;23.278;2023-04-27T12:15:40;94684.53;;;16.98;38.36
6435;BME280;3250;42.694;23.278;2023-04-27T12:18:06;94691.41;;;16.62;38.02
6435;BME280;3250;42.694;23.278;2023-04-27T12:20:32;94686.50;;;16.76;38.05
6435;BME280;3250;42.694;23.278;2023-04-27T12:22:58;94693.19;;;16.83;38.26
6435;BME280;3250;42.694;23.278;2023-04-27T12:25:23;94696.44;;;16.90;37.40
6435;BME280;3250;42.694;23.278;2023-04-27T12:27:49;94691.47;;;16.99;38.42
6435;BME280;3250;42.694;23.278;2023-04-27T12:30:15;94667.78;;;16.97;38.17
6435;BME280;3250;42.694;23.278;2023-04-27T12:32:41;94697.69;;;17.15;36.53
6435;BME280;3250;42.694;23.278;2023-04-27T12:35:07;94673.44;;;16.74;36.73
6435;BME280;3250;42.694;23.278;2023-04-27T12:37:33;94694.88;;;16.63;37.18
6435;BME280;3250;42.694;23.278;2023-04-27T12:39:59;94684.31;;;16.19;36.74
6435;BME280;3250;42.694;23.278;2023-04-27T12:42:25;94694.31;;;16.12;37.24
6435;BME280;3250;42.694;23.278;2023-04-27T12:44:51;94692.34;;;16.02;38.44
6435;BME280;3250;42.694;23.278;2023-04-27T12:47:18;94694.78;;;16.04;37.79
6435;BME280;3250;42.694;23.278;2023-04-27T12:49:44;94691.38;;;16.08;39.40
6435;BME280;3250;42.694;23.278;2023-04-27T12:52:09;94693.59;;;16.16;38.30
6435;BME280;3250;42.694;23.278;2023-04-27T12:54:35;94703.66;;;16.14;39.11
6435;BME280;3250;42.694;23.278;2023-04-27T12:57:01;94700.41;;;16.07;38.47
6435;BME280;3250;42.694;23.278;2023-04-27T12:59:33;94703.19;;;15.96;38.10
6435;BME280;3250;42.694;23.278;2023-04-27T13:01:59;94688.53;;;15.93;38.69
6435;BME280;3250;42.694;23.278;2023-04-27T13:04:25;94703.50;;;15.99;37.70
6435;BME280;3250;42.694;23.278;2023-04-27T13:06:51;94696.00;;;15.96;38.44
6435;BME280;3250;42.694;23.278;2023-04-27T13:09:16;94688.38;;;16.00;38.89
6435;BME280;3250;42.694;23.278;2023-04-27T13:11:41;94699.34;;;16.08;39.12
6435;BME280;3250;42.694;23.278;2023-04-27T13:14:07;94697.88;;;15.96;37.96
6435;BME280;3250;42.694;23.278;2023-04-27T13:16:34;94678.34;;;15.85;37.68
6435;BME280;3250;42.694;23.278;2023-04-27T13:18:59;94670.34;;;15.80;37.61
6435;BME280;3250;42.694;23.278;2023-04-27T13:21:25;94686.31;;;15.85;36.23
6435;BME280;3250;42.694;23.278;2023-04-27T13:23:51;94690.53;;;15.81;38.22